sensor_id;sensor_type;location;lat;lon;timestamp;P1;durP1;ratioP1;P2;durP2;ratioP2
11711;SDS011;5912;51.034;6.984;2023-04-25T00:00:14;8.70;;;3.73;;
11711;SDS011;5912;51.034;6.984;2023-04-25T00:02:39;7.20;;;3.27;;
11711;SDS011;5912;51.034;6.984;2023-04-25T00:05:05;5.87;;;3.53;;
11711;SDS011;5912;51.034;6.984;2023-04-25T00:07:30;5.53;;;3.07;;
11711;SDS011;5912;51.034;6.984;2023-04-25T00:09:57;8.50;;;3.67;;
11711;SDS011;5912;51.034;6.984;2023-04-25T00:12:22;7.87;;;3.57;;
11711;SDS011;5912;51.034;6.984;2023-04-25T00:14:48;6.03;;;3.50;;
11711;SDS011;5912;51.034;6.984;2023-04-25T00:17:15;5.33;;;3.60;;
11711;SDS011;5912;51.034;6.984;2023-04-25T00:19:44;5.60;;;3.00;;
11711;SDS011;5912;51.034;6.984;2023-04-25T00:22:11;6.17;;;3.37;;
11711;SDS011;5912;51.034;6.984;2023-04-25T00:24:37;8.40;;;3.37;;
11711;SDS011;5912;51.034;6.984;2023-04-25T00:27:02;8.83;;;4.03;;
11711;SDS011;5912;51.034;6.984;2023-04-25T00:29:27;6.60;;;3.37;;
11711;SDS011;5912;51.034;6.984;2023-04-25T00:31:53;6.33;;;3.40;;
11711;SDS011;5912;51.034;6.984;2023-04-25T00:34:18;7.67;;;3.93;;
11711;SDS011;5912;51.034;6.984;2023-04-25T00:36:43;6.60;;;3.90;;
11711;SDS011;5912;51.034;6.984;2023-04-25T00:39:09;5.80;;;3.40;;
11711;SDS011;5912;51.034;6.984;2023-04-25T00:41:34;6.30;;;3.23;;
11711;SDS011;5912;51.034;6.984;2023-04-25T00:43:59;7.43;;;3.90;;
11711;SDS011;5912;51.034;6.984;2023-04-25T00:46:26;5.77;;;3.40;;
11711;SDS011;5912;51.034;6.984;2023-04-25T00:48:51;9.17;;;3.63;;
11711;SDS011;5912;51.034;6.984;2023-04-25T00:51:20;9.27;;;3.93;;
11711;SDS011;5912;51.034;6.984;2023-04-25T00:53:46;7.53;;;3.43;;
11711;SDS011;5912;51.034;6.984;2023-04-25T00:56:13;6.87;;;3.50;;
11711;SDS011;5912;51.034;6.984;2023-04-25T00:58:38;10.10;;;3.33;;
11711;SDS011;5912;51.034;6.984;2023-04-25T01:01:06;8.30;;;3.30;;
11711;SDS011;5912;51.034;6.984;2023-04-25T01:03:32;7.10;;;4.20;;
11711;SDS011;5912;51.034;6.984;2023-04-25T01:06:00;9.00;;;4.17;;
11711;SDS011;5912;51.034;6.984;2023-04-25T01:08:26;8.80;;;4.30;;
11711;SDS011;5912;51.034;6.984;2023-04-25T01:10:52;7.93;;;4.17;;
11711;SDS011;5912;51.034;6.984;2023-04-25T01:13:17;10.00;;;4.63;;
11711;SDS011;5912;51.034;6.984;2023-04-25T01:15:42;8.50;;;4.10;;
11711;SDS011;5912;51.034;6.984;2023-04-25T01:18:08;8.60;;;4.30;;
11711;SDS011;5912;51.034;6.984;2023-04-25T01:20:34;11.13;;;4.00;;
11711;SDS011;5912;51.034;6.984;2023-04-25T01:23:02;8.80;;;4.07;;
11711;SDS011;5912;51.034;6.984;2023-04-25T01:25:28;9.73;;;3.90;;
11711;SDS011;5912;51.034;6.984;2023-04-25T01:27:55;8.03;;;3.97;;
11711;SDS011;5912;51.034;6.984;2023-04-25T01:30:20;6.07;;;3.47;;
11711;SDS011;5912;51.034;6.984;2023-04-25T01:32:46;10.03;;;4.70;;
11711;SDS011;5912;51.034;6.984;2023-04-25T01:35:13;11.57;;;4.37;;
11711;SDS011;5912;51.034;6.984;2023-04-25T01:37:41;10.43;;;4.40;;
11711;SDS011;5912;51.034;6.984;2023-04-25T01:40:08;7.20;;;4.13;;
11711;SDS011;5912;51.034;6.984;2023-04-25T01:42:36;12.50;;;4.40;;
11711;SDS011;5912;51.034;6.984;2023-04-25T01:45:05;10.33;;;3.80;;
11711;SDS011;5912;51.034;6.984;2023-04-25T01:47:32;6.27;;;3.40;;
11711;SDS011;5912;51.034;6.984;2023-04-25T01:49:57;6.47;;;3.50;;
11711;SDS011;5912;51.034;6.984;2023-04-25T01:52:23;7.93;;;4.03;;
11711;SDS011;5912;51.034;6.984;2023-04-25T01:54:48;10.07;;;3.83;;
11711;SDS011;5912;51.034;6.984;2023-04-25T01:57:15;7.63;;;3.40;;
11711;SDS011;5912;51.034;6.984;2023-04-25T01:59:41;12.73;;;4.53;;
11711;SDS011;5912;51.034;6.984;2023-04-25T02:02:06;8.73;;;3.70;;
11711;SDS011;5912;51.034;6.984;2023-04-25T02:04:32;8.53;;;3.43;;
11711;SDS011;5912;51.034;6.984;2023-04-25T02:06:58;8.60;;;3.43;;
11711;SDS011;5912;51.034;6.984;2023-04-25T02:09:23;9.43;;;3.70;;
11711;SDS011;5912;51.034;6.984;2023-04-25T02:11:48;8.33;;;3.47;;
11711;SDS011;5912;51.034;6.984;2023-04-25T02:14:14;6.33;;;3.43;;
11711;SDS011;5912;51.034;6.984;2023-04-25T02:16:39;11.63;;;4.00;;
11711;SDS011;5912;51.034;6.984;2023-04-25T02:19:05;6.33;;;3.43;;
11711;SDS011;5912;51.034;6.984;2023-04-25T02:21:31;6.37;;;3.20;;
11711;SDS011;5912;51.034;6.984;2023-04-25T02:23:57;10.73;;;4.20;;
11711;SDS011;5912;51.034;6.984;2023-04-25T02:26:22;6.47;;;3.80;;
11711;SDS011;5912;51.034;6.984;2023-04-25T02:28:48;7.17;;;3.90;;
11711;SDS011;5912;51.034;6.984;2023-04-25T02:31:14;8.13;;;4.00;;
11711;SDS011;5912;51.034;6.984;2023-04-25T02:33:40;6.53;;;3.20;;
11711;SDS011;5912;51.034;6.984;2023-04-25T02:36:05;6.23;;;3.37;;
11711;SDS011;5912;51.034;6.984;2023-04-25T02:38:31;6.73;;;3.80;;
11711;SDS011;5912;51.034;6.984;2023-04-25T02:40:56;7.30;;;3.83;;
11711;SDS011;5912;51.034;6.984;2023-04-25T02:43:21;9.60;;;4.40;;
11711;SDS011;5912;51.034;6.984;2023-04-25T02:45:47;6.37;;;3.83;;
11711;SDS011;5912;51.034;6.984;2023-04-25T02:48:12;11.03;;;5.07;;
11711;SDS011;5912;51.034;6.984;2023-04-25T02:50:37;11.80;;;4.57;;
11711;SDS011;5912;51.034;6.984;2023-04-25T02:53:03;6.03;;;3.40;;
11711;SDS011;5912;51.034;6.984;2023-04-25T02:55:28;8.30;;;4.30;;
11711;SDS011;5912;51.034;6.984;2023-04-25T02:57:53;9.10;;;3.73;;
11711;SDS011;5912;51.034;6.984;2023-04-25T03:00:20;6.03;;;3.57;;
11711;SDS011;5912;51.034;6.984;2023-04-25T03:02:46;6.80;;;3.77;;
11711;SDS011;5912;51.034;6.984;2023-04-25T03:05:11;5.30;;;3.47;;
11711;SDS011;5912;51.034;6.984;2023-04-25T03:07:37;7.87;;;3.33;;
11711;SDS011;5912;51.034;6.984;2023-04-25T03:10:04;7.03;;;3.43;;
11711;SDS011;5912;51.034;6.984;2023-04-25T03:12:31;6.37;;;3.57;;
11711;SDS011;5912;51.034;6.984;2023-04-25T03:14:56;9.77;;;3.07;;
11711;SDS011;5912;51.034;6.984;2023-04-25T03:17:21;4.30;;;2.50;;
11711;SDS011;5912;51.034;6.984;2023-04-25T03:19:47;5.43;;;2.87;;
11711;SDS011;5912;51.034;6.984;2023-04-25T03:22:12;5.57;;;3.47;;
11711;SDS011;5912;51.034;6.984;2023-04-25T03:24:37;4.67;;;3.10;;
11711;SDS011;5912;51.034;6.984;2023-04-25T03:27:03;7.37;;;3.20;;
11711;SDS011;5912;51.034;6.984;2023-04-25T03:29:28;3.07;;;2.57;;
11711;SDS011;5912;51.034;6.984;2023-04-25T03:31:53;4.47;;;2.43;;
11711;SDS011;5912;51.034;6.984;2023-04-25T03:34:19;5.23;;;2.83;;
11711;SDS011;5912;51.034;6.984;2023-04-25T03:36:46;4.30;;;3.00;;
11711;SDS011;5912;51.034;6.984;2023-04-25T03:39:12;5.13;;;2.37;;
11711;SDS011;5912;51.034;6.984;2023-04-25T03:41:37;6.93;;;2.30;;
11711;SDS011;5912;51.034;6.984;2023-04-25T03:44:02;6.27;;;2.27;;
11711;SDS011;5912;51.034;6.984;2023-04-25T03:46:28;8.07;;;2.60;;
11711;SDS011;5912;51.034;6.984;2023-04-25T03:48:53;3.83;;;2.60;;
11711;SDS011;5912;51.034;6.984;2023-04-25T03:51:18;7.20;;;3.30;;
11711;SDS011;5912;51.034;6.984;2023-04-25T03:53:44;7.03;;;3.27;;
11711;SDS011;5912;51.034;6.984;2023-04-25T03:56:09;7.23;;;3.43;;
11711;SDS011;5912;51.034;6.984;2023-04-25T03:58:34;7.17;;;3.53;;
11711;SDS011;5912;51.034;6.984;2023-04-25T04:01:00;11.60;;;4.30;;
11711;SDS011;5912;51.034;6.984;2023-04-25T04:03:27;5.47;;;3.27;;
11711;SDS011;5912;51.034;6.984;2023-04-25T04:05:53;7.47;;;3.13;;
11711;SDS011;5912;51.034;6.984;2023-04-25T04:08:18;7.53;;;3.87;;
11711;SDS011;5912;51.034;6.984;2023-04-25T04:10:43;8.03;;;4.57;;
11711;SDS011;5912;51.034;6.984;2023-04-25T04:13:09;8.53;;;4.33;;
11711;SDS011;5912;51.034;6.984;2023-04-25T04:15:34;10.73;;;4.30;;
11711;SDS011;5912;51.034;6.984;2023-04-25T04:17:59;10.40;;;4.73;;
11711;SDS011;5912;51.034;6.984;2023-04-25T04:20:27;7.67;;;3.90;;
11711;SDS011;5912;51.034;6.984;2023-04-25T04:22:54;9.10;;;5.13;;
11711;SDS011;5912;51.034;6.984;2023-04-25T04:25:19;6.87;;;4.57;;
11711;SDS011;5912;51.034;6.984;2023-04-25T04:27:45;10.03;;;4.77;;
11711;SDS011;5912;51.034;6.984;2023-04-25T04:30:11;6.77;;;4.00;;
11711;SDS011;5912;51.034;6.984;2023-04-25T04:32:37;9.43;;;4.63;;
11711;SDS011;5912;51.034;6.984;2023-04-25T04:35:02;8.70;;;3.77;;
11711;SDS011;5912;51.034;6.984;2023-04-25T04:37:29;6.23;;;3.90;;
11711;SDS011;5912;51.034;6.984;2023-04-25T04:39:55;7.60;;;3.77;;
11711;SDS011;5912;51.034;6.984;2023-04-25T04:42:20;6.27;;;3.50;;
11711;SDS011;5912;51.034;6.984;2023-04-25T04:44:46;6.47;;;4.10;;
11711;SDS011;5912;51.034;6.984;2023-04-25T04:47:11;8.33;;;3.50;;
11711;SDS011;5912;51.034;6.984;2023-04-25T04:49:38;7.47;;;3.93;;
11711;SDS011;5912;51.034;6.984;2023-04-25T04:52:04;6.80;;;3.10;;
11711;SDS011;5912;51.034;6.984;2023-04-25T04:54:30;6.40;;;3.53;;
11711;SDS011;5912;51.034;6.984;2023-04-25T04:56:55;10.17;;;3.60;;
11711;SDS011;5912;51.034;6.984;2023-04-25T04:59:21;9.20;;;4.20;;
11711;SDS011;5912;51.034;6.984;2023-04-25T05:01:46;10.13;;;3.87;;
11711;SDS011;5912;51.034;6.984;2023-04-25T05:04:11;9.73;;;3.70;;
11711;SDS011;5912;51.034;6.984;2023-04-25T05:06:37;11.63;;;4.70;;
11711;SDS011;5912;51.034;6.984;2023-04-25T05:09:02;12.23;;;4.60;;
11711;SDS011;5912;51.034;6.984;2023-04-25T05:11:28;10.00;;;4.20;;
11711;SDS011;5912;51.034;6.984;2023-04-25T05:13:53;6.97;;;3.40;;
11711;SDS011;5912;51.034;6.984;2023-04-25T05:16:19;8.93;;;3.77;;
11711;SDS011;5912;51.034;6.984;2023-04-25T05:18:45;8.73;;;3.53;;
11711;SDS011;5912;51.034;6.984;2023-04-25T05:21:11;7.57;;;3.63;;
11711;SDS011;5912;51.034;6.984;2023-04-25T05:23:37;9.60;;;4.00;;
11711;SDS011;5912;51.034;6.984;2023-04-25T05:26:02;6.17;;;3.30;;
11711;SDS011;5912;51.034;6.984;2023-04-25T05:28:27;7.97;;;3.57;;
11711;SDS011;5912;51.034;6.984;2023-04-25T05:30:53;7.27;;;3.33;;
11711;SDS011;5912;51.034;6.984;2023-04-25T05:33:18;10.10;;;3.63;;
11711;SDS011;5912;51.034;6.984;2023-04-25T05:35:44;10.93;;;4.07;;
11711;SDS011;5912;51.034;6.984;2023-04-25T05:38:09;8.47;;;3.57;;
11711;SDS011;5912;51.034;6.984;2023-04-25T05:40:35;9.83;;;3.73;;
11711;SDS011;5912;51.034;6.984;2023-04-25T05:43:00;8.20;;;3.27;;
11711;SDS011;5912;51.034;6.984;2023-04-25T05:45:26;9.23;;;3.87;;
11711;SDS011;5912;51.034;6.984;2023-04-25T05:47:51;8.83;;;3.67;;
11711;SDS011;5912;51.034;6.984;2023-04-25T05:50:16;6.33;;;3.60;;
11711;SDS011;5912;51.034;6.984;2023-04-25T05:52:42;8.13;;;3.33;;
11711;SDS011;5912;51.034;6.984;2023-04-25T05:55:07;7.73;;;3.47;;
11711;SDS011;5912;51.034;6.984;2023-04-25T05:57:33;8.40;;;3.43;;
11711;SDS011;5912;51.034;6.984;2023-04-25T05:59:58;8.63;;;3.38;;
11711;SDS011;5912;51.034;6.984;2023-04-25T06:02:23;7.90;;;3.47;;
11711;SDS011;5912;51.034;6.984;2023-04-25T06:04:49;9.73;;;3.70;;
11711;SDS011;5912;51.034;6.984;2023-04-25T06:07:15;9.02;;;4.38;;
11711;SDS011;5912;51.034;6.984;2023-04-25T06:09:41;13.27;;;3.60;;
11711;SDS011;5912;51.034;6.984;2023-04-25T06:12:06;11.77;;;3.55;;
11711;SDS011;5912;51.034;6.984;2023-04-25T06:14:32;12.95;;;3.80;;
11711;SDS011;5912;51.034;6.984;2023-04-25T06:16:58;8.70;;;2.70;;
11711;SDS011;5912;51.034;6.984;2023-04-25T06:19:23;9.20;;;3.15;;
11711;SDS011;5912;51.034;6.984;2023-04-25T06:21:49;10.27;;;3.28;;
11711;SDS011;5912;51.034;6.984;2023-04-25T06:24:14;8.65;;;3.03;;
11711;SDS011;5912;51.034;6.984;2023-04-25T06:26:39;6.88;;;2.60;;
11711;SDS011;5912;51.034;6.984;2023-04-25T06:29:04;8.90;;;2.58;;
11711;SDS011;5912;51.034;6.984;2023-04-25T06:31:30;6.90;;;2.55;;
11711;SDS011;5912;51.034;6.984;2023-04-25T06:33:57;8.07;;;2.50;;
11711;SDS011;5912;51.034;6.984;2023-04-25T06:36:23;14.07;;;4.10;;
11711;SDS011;5912;51.034;6.984;2023-04-25T06:38:53;5.43;;;2.35;;
11711;SDS011;5912;51.034;6.984;2023-04-25T06:41:19;8.10;;;2.47;;
11711;SDS011;5912;51.034;6.984;2023-04-25T06:43:44;8.48;;;2.53;;
11711;SDS011;5912;51.034;6.984;2023-04-25T06:46:10;7.20;;;2.55;;
11711;SDS011;5912;51.034;6.984;2023-04-25T06:48:35;7.97;;;3.10;;
11711;SDS011;5912;51.034;6.984;2023-04-25T06:51:01;10.85;;;3.15;;
11711;SDS011;5912;51.034;6.984;2023-04-25T06:53:26;9.98;;;2.67;;
11711;SDS011;5912;51.034;6.984;2023-04-25T06:55:51;7.28;;;2.70;;
11711;SDS011;5912;51.034;6.984;2023-04-25T06:58:17;7.53;;;3.00;;
11711;SDS011;5912;51.034;6.984;2023-04-25T07:00:42;7.32;;;2.63;;
11711;SDS011;5912;51.034;6.984;2023-04-25T07:03:08;7.40;;;2.60;;
11711;SDS011;5912;51.034;6.984;2023-04-25T07:05:33;8.25;;;2.55;;
11711;SDS011;5912;51.034;6.984;2023-04-25T07:07:58;5.78;;;2.45;;
11711;SDS011;5912;51.034;6.984;2023-04-25T07:10:24;13.18;;;2.67;;
11711;SDS011;5912;51.034;6.984;2023-04-25T07:12:50;8.48;;;2.95;;
11711;SDS011;5912;51.034;6.984;2023-04-25T07:15:15;8.98;;;3.47;;
11711;SDS011;5912;51.034;6.984;2023-04-25T07:17:40;8.65;;;3.08;;
11711;SDS011;5912;51.034;6.984;2023-04-25T07:20:06;6.85;;;2.45;;
11711;SDS011;5912;51.034;6.984;2023-04-25T07:22:32;9.50;;;3.13;;
11711;SDS011;5912;51.034;6.984;2023-04-25T07:24:57;8.68;;;3.33;;
11711;SDS011;5912;51.034;6.984;2023-04-25T07:27:23;7.25;;;2.72;;
11711;SDS011;5912;51.034;6.984;2023-04-25T07:29:48;6.90;;;2.92;;
11711;SDS011;5912;51.034;6.984;2023-04-25T07:32:13;11.10;;;2.65;;
11711;SDS011;5912;51.034;6.984;2023-04-25T07:34:39;5.82;;;2.63;;
11711;SDS011;5912;51.034;6.984;2023-04-25T07:37:04;6.63;;;2.67;;
11711;SDS011;5912;51.034;6.984;2023-04-25T07:39:30;6.38;;;3.38;;
11711;SDS011;5912;51.034;6.984;2023-04-25T07:41:55;6.53;;;2.80;;
11711;SDS011;5912;51.034;6.984;2023-04-25T07:44:23;8.30;;;3.10;;
11711;SDS011;5912;51.034;6.984;2023-04-25T07:46:49;12.38;;;3.38;;
11711;SDS011;5912;51.034;6.984;2023-04-25T07:49:14;10.02;;;3.63;;
11711;SDS011;5912;51.034;6.984;2023-04-25T07:51:40;6.65;;;3.40;;
11711;SDS011;5912;51.034;6.984;2023-04-25T07:54:09;9.30;;;3.22;;
11711;SDS011;5912;51.034;6.984;2023-04-25T07:56:34;11.23;;;3.75;;
11711;SDS011;5912;51.034;6.984;2023-04-25T07:59:00;7.47;;;3.58;;
11711;SDS011;5912;51.034;6.984;2023-04-25T08:01:26;6.90;;;3.25;;
11711;SDS011;5912;51.034;6.984;2023-04-25T08:03:52;9.45;;;2.85;;
11711;SDS011;5912;51.034;6.984;2023-04-25T08:06:17;5.05;;;2.33;;
11711;SDS011;5912;51.034;6.984;2023-04-25T08:08:42;7.43;;;3.00;;
11711;SDS011;5912;51.034;6.984;2023-04-25T08:11:08;7.10;;;3.00;;
11711;SDS011;5912;51.034;6.984;2023-04-25T08:13:33;9.68;;;2.70;;
11711;SDS011;5912;51.034;6.984;2023-04-25T08:15:58;6.45;;;2.00;;
11711;SDS011;5912;51.034;6.984;2023-04-25T08:18:24;9.15;;;2.33;;
11711;SDS011;5912;51.034;6.984;2023-04-25T08:20:49;5.50;;;2.25;;
11711;SDS011;5912;51.034;6.984;2023-04-25T08:23:14;8.15;;;1.90;;
11711;SDS011;5912;51.034;6.984;2023-04-25T08:25:40;5.22;;;2.03;;
11711;SDS011;5912;51.034;6.984;2023-04-25T08:28:05;10.52;;;2.10;;
11711;SDS011;5912;51.034;6.984;2023-04-25T08:30:31;7.40;;;2.25;;
11711;SDS011;5912;51.034;6.984;2023-04-25T08:32:56;6.53;;;2.10;;
11711;SDS011;5912;51.034;6.984;2023-04-25T08:35:21;7.28;;;2.00;;
11711;SDS011;5912;51.034;6.984;2023-04-25T08:37:47;5.47;;;2.08;;
11711;SDS011;5912;51.034;6.984;2023-04-25T08:40:14;6.65;;;2.30;;
11711;SDS011;5912;51.034;6.984;2023-04-25T08:42:41;9.73;;;1.95;;
11711;SDS011;5912;51.034;6.984;2023-04-25T08:45:07;9.10;;;1.95;;
11711;SDS011;5912;51.034;6.984;2023-04-25T08:47:33;6.10;;;1.48;;
11711;SDS011;5912;51.034;6.984;2023-04-25T08:50:00;7.95;;;2.10;;
11711;SDS011;5912;51.034;6.984;2023-04-25T08:52:27;4.55;;;1.83;;
11711;SDS011;5912;51.034;6.984;2023-04-25T08:54:57;6.63;;;2.00;;
11711;SDS011;5912;51.034;6.984;2023-04-25T08:57:25;7.80;;;1.77;;
11711;SDS011;5912;51.034;6.984;2023-04-25T08:59:51;8.63;;;1.85;;
11711;SDS011;5912;51.034;6.984;2023-04-25T09:02:17;9.43;;;2.08;;
11711;SDS011;5912;51.034;6.984;2023-04-25T09:04:45;5.60;;;1.83;;
11711;SDS011;5912;51.034;6.984;2023-04-25T09:07:11;5.57;;;1.92;;
11711;SDS011;5912;51.034;6.984;2023-04-25T09:09:36;4.30;;;2.05;;
11711;SDS011;5912;51.034;6.984;2023-04-25T09:12:02;3.85;;;1.45;;
11711;SDS011;5912;51.034;6.984;2023-04-25T09:14:27;3.33;;;1.50;;
11711;SDS011;5912;51.034;6.984;2023-04-25T09:19:31;4.93;;;1.33;;
11711;SDS011;5912;51.034;6.984;2023-04-25T09:22:00;4.45;;;1.50;;
11711;SDS011;5912;51.034;6.984;2023-04-25T09:27:08;4.45;;;1.20;;
11711;SDS011;5912;51.034;6.984;2023-04-25T09:29:36;5.65;;;1.60;;
11711;SDS011;5912;51.034;6.984;2023-04-25T09:34:40;4.53;;;1.85;;
11711;SDS011;5912;51.034;6.984;2023-04-25T09:37:08;5.28;;;1.55;;
11711;SDS011;5912;51.034;6.984;2023-04-25T09:39:34;4.00;;;1.50;;
11711;SDS011;5912;51.034;6.984;2023-04-25T09:41:59;5.03;;;1.55;;
11711;SDS011;5912;51.034;6.984;2023-04-25T09:44:25;4.68;;;1.40;;
11711;SDS011;5912;51.034;6.984;2023-04-25T09:46:51;3.55;;;1.20;;
11711;SDS011;5912;51.034;6.984;2023-04-25T09:49:19;4.57;;;1.42;;
11711;SDS011;5912;51.034;6.984;2023-04-25T09:51:57;4.13;;;1.50;;
11711;SDS011;5912;51.034;6.984;2023-04-25T09:54:24;6.10;;;1.70;;
11711;SDS011;5912;51.034;6.984;2023-04-25T09:56:51;4.07;;;1.40;;
11711;SDS011;5912;51.034;6.984;2023-04-25T09:59:19;3.72;;;1.63;;
11711;SDS011;5912;51.034;6.984;2023-04-25T10:01:46;4.88;;;1.38;;
11711;SDS011;5912;51.034;6.984;2023-04-25T10:04:13;2.67;;;1.17;;
11711;SDS011;5912;51.034;6.984;2023-04-25T10:06:44;5.00;;;1.42;;
11711;SDS011;5912;51.034;6.984;2023-04-25T10:09:11;4.15;;;1.50;;
11711;SDS011;5912;51.034;6.984;2023-04-25T10:11:38;2.38;;;1.30;;
11711;SDS011;5912;51.034;6.984;2023-04-25T10:14:04;2.83;;;1.30;;
11711;SDS011;5912;51.034;6.984;2023-04-25T10:16:31;5.63;;;1.63;;
11711;SDS011;5912;51.034;6.984;2023-04-25T10:18:57;5.05;;;1.30;;
11711;SDS011;5912;51.034;6.984;2023-04-25T10:21:22;6.07;;;1.30;;
11711;SDS011;5912;51.034;6.984;2023-04-25T10:23:51;7.50;;;1.73;;
11711;SDS011;5912;51.034;6.984;2023-04-25T10:26:18;2.90;;;1.13;;
11711;SDS011;5912;51.034;6.984;2023-04-25T10:29:00;5.68;;;1.88;;
11711;SDS011;5912;51.034;6.984;2023-04-25T10:31:27;3.20;;;1.20;;
11711;SDS011;5912;51.034;6.984;2023-04-25T10:33:53;3.03;;;1.08;;
11711;SDS011;5912;51.034;6.984;2023-04-25T10:36:20;2.33;;;1.25;;
11711;SDS011;5912;51.034;6.984;2023-04-25T10:38:47;3.15;;;1.10;;
11711;SDS011;5912;51.034;6.984;2023-04-25T10:41:15;6.03;;;1.40;;
11711;SDS011;5912;51.034;6.984;2023-04-25T10:43:44;5.30;;;1.50;;
11711;SDS011;5912;51.034;6.984;2023-04-25T10:46:26;5.80;;;1.60;;
11711;SDS011;5912;51.034;6.984;2023-04-25T10:48:55;2.38;;;1.00;;
11711;SDS011;5912;51.034;6.984;2023-04-25T10:54:07;5.45;;;1.35;;
11711;SDS011;5912;51.034;6.984;2023-04-25T10:56:37;2.22;;;1.13;;
11711;SDS011;5912;51.034;6.984;2023-04-25T11:01:38;3.42;;;1.10;;
11711;SDS011;5912;51.034;6.984;2023-04-25T11:04:03;3.97;;;1.00;;
11711;SDS011;5912;51.034;6.984;2023-04-25T11:06:32;3.75;;;1.25;;
11711;SDS011;5912;51.034;6.984;2023-04-25T11:09:11;2.65;;;1.05;;
11711;SDS011;5912;51.034;6.984;2023-04-25T11:11:40;6.45;;;0.90;;
11711;SDS011;5912;51.034;6.984;2023-04-25T11:14:06;3.15;;;1.30;;
11711;SDS011;5912;51.034;6.984;2023-04-25T11:16:31;5.07;;;1.08;;
11711;SDS011;5912;51.034;6.984;2023-04-25T11:18:57;6.22;;;1.20;;
11711;SDS011;5912;51.034;6.984;2023-04-25T11:21:23;4.03;;;1.00;;
11711;SDS011;5912;51.034;6.984;2023-04-25T11:23:48;4.63;;;1.48;;
11711;SDS011;5912;51.034;6.984;2023-04-25T11:26:14;3.35;;;1.20;;
11711;SDS011;5912;51.034;6.984;2023-04-25T11:28:40;2.38;;;1.20;;
11711;SDS011;5912;51.034;6.984;2023-04-25T11:31:05;4.35;;;1.35;;
11711;SDS011;5912;51.034;6.984;2023-04-25T11:33:30;3.90;;;1.00;;
11711;SDS011;5912;51.034;6.984;2023-04-25T11:35:56;4.25;;;1.20;;
11711;SDS011;5912;51.034;6.984;2023-04-25T11:38:22;3.00;;;1.45;;
11711;SDS011;5912;51.034;6.984;2023-04-25T11:40:50;1.95;;;0.90;;
11711;SDS011;5912;51.034;6.984;2023-04-25T11:43:17;2.72;;;1.05;;
11711;SDS011;5912;51.034;6.984;2023-04-25T11:45:48;4.07;;;1.20;;
11711;SDS011;5912;51.034;6.984;2023-04-25T11:48:14;2.63;;;0.93;;
11711;SDS011;5912;51.034;6.984;2023-04-25T11:50:39;3.58;;;1.20;;
11711;SDS011;5912;51.034;6.984;2023-04-25T11:53:05;1.92;;;1.00;;
11711;SDS011;5912;51.034;6.984;2023-04-25T11:55:31;5.97;;;1.10;;
11711;SDS011;5912;51.034;6.984;2023-04-25T11:57:59;4.13;;;1.20;;
11711;SDS011;5912;51.034;6.984;2023-04-25T12:00:25;2.70;;;1.10;;
11711;SDS011;5912;51.034;6.984;2023-04-25T12:02:54;2.05;;;0.98;;
11711;SDS011;5912;51.034;6.984;2023-04-25T12:05:23;2.92;;;1.02;;
11711;SDS011;5912;51.034;6.984;2023-04-25T12:07:50;3.28;;;0.90;;
11711;SDS011;5912;51.034;6.984;2023-04-25T12:10:16;2.65;;;1.13;;
11711;SDS011;5912;51.034;6.984;2023-04-25T12:12:43;3.45;;;0.98;;
11711;SDS011;5912;51.034;6.984;2023-04-25T12:17:58;3.25;;;1.17;;
11711;SDS011;5912;51.034;6.984;2023-04-25T12:20:24;3.38;;;1.30;;
11711;SDS011;5912;51.034;6.984;2023-04-25T12:22:51;3.90;;;1.17;;
11711;SDS011;5912;51.034;6.984;2023-04-25T12:33:27;3.53;;;1.13;;
11711;SDS011;5912;51.034;6.984;2023-04-25T12:35:54;3.50;;;1.25;;
11711;SDS011;5912;51.034;6.984;2023-04-25T12:38:23;3.72;;;1.15;;
11711;SDS011;5912;51.034;6.984;2023-04-25T12:40:50;4.00;;;1.08;;
11711;SDS011;5912;51.034;6.984;2023-04-25T12:43:16;3.22;;;1.33;;
11711;SDS011;5912;51.034;6.984;2023-04-25T12:45:42;4.22;;;1.00;;
11711;SDS011;5912;51.034;6.984;2023-04-25T12:48:07;2.63;;;1.10;;
11711;SDS011;5912;51.034;6.984;2023-04-25T12:50:33;2.38;;;1.00;;
11711;SDS011;5912;51.034;6.984;2023-04-25T12:52:58;3.75;;;1.17;;
11711;SDS011;5912;51.034;6.984;2023-04-25T12:55:23;5.22;;;1.48;;
11711;SDS011;5912;51.034;6.984;2023-04-25T12:57:48;3.15;;;1.23;;
11711;SDS011;5912;51.034;6.984;2023-04-25T13:00:14;3.00;;;1.20;;
11711;SDS011;5912;51.034;6.984;2023-04-25T13:02:42;1.13;;;0.80;;
11711;SDS011;5912;51.034;6.984;2023-04-25T13:05:08;2.88;;;1.00;;
11711;SDS011;5912;51.034;6.984;2023-04-25T13:07:34;3.58;;;1.00;;
11711;SDS011;5912;51.034;6.984;2023-04-25T13:09:59;1.98;;;1.00;;
11711;SDS011;5912;51.034;6.984;2023-04-25T13:12:25;1.98;;;0.90;;
11711;SDS011;5912;51.034;6.984;2023-04-25T13:14:50;2.25;;;1.02;;
11711;SDS011;5912;51.034;6.984;2023-04-25T13:17:16;3.20;;;1.23;;
11711;SDS011;5912;51.034;6.984;2023-04-25T13:19:41;5.75;;;1.30;;
11711;SDS011;5912;51.034;6.984;2023-04-25T13:22:06;4.65;;;1.50;;
11711;SDS011;5912;51.034;6.984;2023-04-25T13:24:32;3.33;;;1.40;;
11711;SDS011;5912;51.034;6.984;2023-04-25T13:26:57;2.97;;;1.00;;
11711;SDS011;5912;51.034;6.984;2023-04-25T13:29:22;4.03;;;2.05;;
11711;SDS011;5912;51.034;6.984;2023-04-25T13:31:48;7.90;;;1.98;;
11711;SDS011;5912;51.034;6.984;2023-04-25T13:34:13;4.78;;;1.75;;
11711;SDS011;5912;51.034;6.984;2023-04-25T13:36:38;4.32;;;1.60;;
11711;SDS011;5912;51.034;6.984;2023-04-25T13:39:04;3.28;;;1.67;;
11711;SDS011;5912;51.034;6.984;2023-04-25T13:41:30;3.55;;;1.73;;
11711;SDS011;5912;51.034;6.984;2023-04-25T13:43:55;4.03;;;1.55;;
11711;SDS011;5912;51.034;6.984;2023-04-25T13:46:20;3.92;;;1.95;;
11711;SDS011;5912;51.034;6.984;2023-04-25T13:48:46;5.78;;;1.80;;
11711;SDS011;5912;51.034;6.984;2023-04-25T13:51:13;3.15;;;1.60;;
11711;SDS011;5912;51.034;6.984;2023-04-25T13:53:40;5.90;;;1.88;;
11711;SDS011;5912;51.034;6.984;2023-04-25T13:56:05;3.55;;;1.50;;
11711;SDS011;5912;51.034;6.984;2023-04-25T13:58:31;3.75;;;1.42;;
11711;SDS011;5912;51.034;6.984;2023-04-25T14:00:57;2.45;;;1.38;;
11711;SDS011;5912;51.034;6.984;2023-04-25T14:03:23;6.22;;;1.95;;
11711;SDS011;5912;51.034;6.984;2023-04-25T14:05:48;3.55;;;1.30;;
11711;SDS011;5912;51.034;6.984;2023-04-25T14:08:14;1.80;;;1.30;;
11711;SDS011;5912;51.034;6.984;2023-04-25T14:10:39;5.13;;;1.30;;
11711;SDS011;5912;51.034;6.984;2023-04-25T14:13:05;2.28;;;1.40;;
11711;SDS011;5912;51.034;6.984;2023-04-25T14:15:31;3.38;;;1.15;;
11711;SDS011;5912;51.034;6.984;2023-04-25T14:17:57;4.20;;;1.20;;
11711;SDS011;5912;51.034;6.984;2023-04-25T14:20:22;3.40;;;1.30;;
11711;SDS011;5912;51.034;6.984;2023-04-25T14:22:48;1.65;;;1.10;;
11711;SDS011;5912;51.034;6.984;2023-04-25T14:25:14;1.95;;;1.08;;
11711;SDS011;5912;51.034;6.984;2023-04-25T14:27:39;3.22;;;1.38;;
11711;SDS011;5912;51.034;6.984;2023-04-25T14:30:05;1.98;;;0.90;;
11711;SDS011;5912;51.034;6.984;2023-04-25T14:32:31;4.22;;;1.17;;
11711;SDS011;5912;51.034;6.984;2023-04-25T14:34:57;1.42;;;0.73;;
11711;SDS011;5912;51.034;6.984;2023-04-25T14:37:22;2.63;;;1.13;;
11711;SDS011;5912;51.034;6.984;2023-04-25T14:39:47;2.97;;;0.75;;
11711;SDS011;5912;51.034;6.984;2023-04-25T14:42:13;4.15;;;0.60;;
11711;SDS011;5912;51.034;6.984;2023-04-25T14:44:38;1.45;;;0.70;;
11711;SDS011;5912;51.034;6.984;2023-04-25T14:47:03;2.42;;;0.90;;
11711;SDS011;5912;51.034;6.984;2023-04-25T14:49:29;2.53;;;1.02;;
11711;SDS011;5912;51.034;6.984;2023-04-25T14:51:54;2.08;;;0.75;;
11711;SDS011;5912;51.034;6.984;2023-04-25T14:54:19;2.85;;;0.90;;
11711;SDS011;5912;51.034;6.984;2023-04-25T14:56:45;1.90;;;0.80;;
11711;SDS011;5912;51.034;6.984;2023-04-25T14:59:10;3.38;;;1.00;;
11711;SDS011;5912;51.034;6.984;2023-04-25T15:01:35;4.18;;;1.20;;
11711;SDS011;5912;51.034;6.984;2023-04-25T15:04:01;2.42;;;0.93;;
11711;SDS011;5912;51.034;6.984;2023-04-25T15:06:28;2.22;;;0.70;;
11711;SDS011;5912;51.034;6.984;2023-04-25T15:08:55;1.63;;;0.90;;
11711;SDS011;5912;51.034;6.984;2023-04-25T15:11:21;3.88;;;1.13;;
11711;SDS011;5912;51.034;6.984;2023-04-25T15:13:47;2.88;;;1.23;;
11711;SDS011;5912;51.034;6.984;2023-04-25T15:16:13;1.55;;;1.10;;